Time;durP1;ratioP1;P1;durP2;ratioP2;P2;SDS_P1;SDS_P2;PMS_P1;PMS_P2;Temp;Humidity;BMP_temperature;BMP_pressure;BME280_temperature;BME280_humidity;BME280_pressure;Samples;Min_cycle;Max_cycle;Signal;HPM_P1;HPM_P2
2022/12/15 00:39:35;;;;;;;;;62.50;50.75;;;;;3.18;58.03;100241.13;5072594;28;45382;-77
2022/12/15 00:42:01;;;;;;;;;65.00;52.50;;;;;3.10;58.13;100228.22;5073575;28;46037;-77
2022/12/15 00:44:26;;;;;;;;;62.75;51.50;;;;;2.54;58.58;100181.94;5072728;27;45401;-74
2022/12/15 00:46:54;;;;;;;;;64.00;52.00;;;;;2.86;59.32;100240.50;5063276;28;45370;-77
2022/12/15 01:22:26;;;;;;;;;45.25;40.50;;;;;2.22;60.86;100239.16;5075731;28;45426;-75
2022/12/15 01:24:51;;;;;;;;;38.50;30.50;;;;;2.24;60.55;100237.34;5076271;27;46190;-77
2022/12/15 01:27:17;;;;;;;;;62.50;48.50;;;;;2.27;61.45;100237.22;5076461;27;45315;-78
2022/12/15 01:29:43;;;;;;;;;62.50;50.75;;;;;2.30;60.60;100241.53;5076492;27;45417;-76
2022/12/15 01:32:08;;;;;;;;;61.00;49.75;;;;;2.32;60.69;100234.44;5076225;28;45346;-76
2022/12/15 01:34:34;;;;;;;;;58.50;47.75;;;;;2.48;60.70;100245.31;5075878;27;45354;-77
2022/12/15 01:36:59;;;;;;;;;61.75;48.75;;;;;2.45;59.76;100234.91;5075514;27;45322;-76
2022/12/15 01:40:43;;;;;;;;;48.00;41.50;;;;;2.57;60.02;100239.75;5091941;27;45396;-76
2022/12/15 01:42:12;;;;;;;;;64.25;50.75;;;;;2.49;59.60;100236.50;5076151;27;45406;-76
2022/12/15 01:44:37;;;;;;;;;63.25;50.00;;;;;2.67;59.54;100256.97;5075895;27;46314;-75
2022/12/15 01:47:04;;;;;;;;;62.75;50.25;;;;;2.75;59.76;100255.81;5091610;27;46136;-76
2022/12/15 01:49:31;;;;;;;;;54.25;43.50;;;;;2.87;59.70;100258.03;5075241;28;45392;-75
2022/12/15 01:52:03;;;;;;;;;58.25;49.00;;;;;2.63;59.30;100221.09;5076106;28;45428;-75
2022/12/15 01:54:35;;;;;;;;;65.50;49.75;;;;;2.97;59.27;100254.16;5075688;28;45414;-75
2022/12/15 01:57:10;;;;;;;;;59.25;46.50;;;;;3.05;58.73;100260.94;5075882;27;45305;-76
2022/12/15 01:59:39;;;;;;;;;63.25;51.00;;;;;2.50;58.94;100185.56;5075739;28;45436;-76
2022/12/15 02:02:04;;;;;;;;;62.25;53.25;;;;;2.91;58.17;100251.72;5075246;27;45349;-75
2022/12/15 02:04:32;;;;;;;;;64.50;50.75;;;;;2.81;58.63;100261.75;5075126;28;46149;-76
2022/12/15 02:06:57;;;;;;;;;58.25;45.00;;;;;2.66;59.47;100271.03;5075694;28;45371;-75
2022/12/15 02:09:25;;;;;;;;;58.75;47.50;;;;;2.35;59.56;100274.69;5075975;27;45398;-76
2022/12/15 02:12:07;;;;;;;;;55.50;44.00;;;;;2.38;59.27;100275.53;5075080;28;45447;-74
2022/12/15 02:15:03;;;;;;;;;47.50;43.00;;;;;2.31;60.64;100269.59;5075528;27;46330;-74
2022/12/15 02:17:54;;;;;;;;;58.25;48.25;;;;;2.20;61.15;100256.78;5067573;28;45413;-74
2022/12/15 02:20:34;;;;;;;;;60.50;49.25;;;;;2.08;60.80;100251.88;5075651;28;45365;-76
2022/12/15 02:23:33;;;;;;;;;58.75;48.25;;;;;2.21;60.96;100260.25;5074175;27;45501;-76
2022/12/15 02:26:12;;;;;;;;;61.00;50.25;;;;;2.14;61.03;100270.13;5075395;28;45510;-76
2022/12/15 02:28:56;;;;;;;;;58.00;47.50;;;;;2.22;60.34;100264.63;5075437;27;45389;-77
2022/12/15 02:31:48;;;;;;;;;58.00;49.25;;;;;2.41;60.95;100260.47;5075433;28;45418;-76
2022/12/15 02:34:32;;;;;;;;;63.75;52.00;;;;;2.23;60.02;100205.78;5073571;28;45515;-77
2022/12/15 02:37:04;;;;;;;;;66.25;50.00;;;;;2.34;60.58;100241.38;5075190;27;46381;-76
2022/12/15 02:39:29;;;;;;;;;58.25;47.50;;;;;2.32;60.37;100244.97;5108071;27;45387;-77
2022/12/15 02:41:55;;;;;;;;;57.00;48.50;;;;;2.09;60.88;100248.34;5075370;27;45406;-76
2022/12/15 02:44:34;;;;;;;;;66.75;52.00;;;;;1.84;61.63;100254.41;5075003;27;45373;-76
2022/12/15 02:47:14;;;;;;;;;64.00;50.00;;;;;1.92;61.51;100277.84;5079404;27;47217;-76
2022/12/15 02:49:55;;;;;;;;;59.75;50.00;;;;;1.94;61.79;100283.91;5074902;27;45361;-76
2022/12/15 02:52:26;;;;;;;;;64.25;52.00;;;;;2.04;61.38;100281.84;5074912;27;45453;-76
2022/12/15 02:54:57;;;;;;;;;59.00;47.75;;;;;2.01;60.96;100265.25;5075194;27;45454;-76
2022/12/15 02:57:44;;;;;;;;;67.00;54.75;;;;;2.01;60.88;100252.09;5074420;27;45537;-76
2022/12/15 03:00:11;;;;;;;;;63.25;51.75;;;;;1.82;61.38;100262.34;5070532;28;45393;-76
2022/12/15 03:02:45;;;;;;;;;66.00;53.50;;;;;1.83;62.04;100268.44;5074533;27;45345;-75
2022/12/15 03:05:11;;;;;;;;;67.75;56.75;;;;;1.75;61.99;100260.78;5074897;28;45391;-76
2022/12/15 03:07:37;;;;;;;;;64.25;53.75;;;;;1.77;61.67;100256.34;5074322;27;45614;-76
2022/12/15 03:10:04;;;;;;;;;73.25;57.25;;;;;1.81;61.48;100259.75;5074895;27;45520;-76
2022/12/15 03:12:30;;;;;;;;;70.25;56.75;;;;;1.96;61.64;100254.00;5073714;27;45511;-75
2022/12/15 03:14:56;;;;;;;;;63.25;52.00;;;;;2.05;61.67;100265.16;5074603;27;45439;-76
2022/12/15 03:17:22;;;;;;;;;66.75;54.50;;;;;2.04;61.07;100255.53;5074446;27;46372;-77
2022/12/15 03:19:47;;;;;;;;;62.50;49.50;;;;;2.25;61.54;100265.34;5074507;28;45357;-77
2022/12/15 03:22:13;;;;;;;;;61.00;51.25;;;;;2.32;60.61;100269.53;5074823;27;45365;-74
2022/12/15 03:24:38;;;;;;;;;58.25;48.75;;;;;2.34;60.00;100274.75;5073288;28;45361;-76
2022/12/15 03:27:04;;;;;;;;;67.50;52.50;;;;;2.35;60.83;100274.69;5074605;27;46086;-75
2022/12/15 03:29:29;;;;;;;;;64.00;49.25;;;;;2.03;60.51;100219.63;5074716;27;45381;-75
2022/12/15 03:31:54;;;;;;;;;61.00;51.75;;;;;2.08;60.32;100244.00;5074316;27;45437;-75
2022/12/15 03:34:20;;;;;;;;;67.00;52.50;;;;;2.32;60.75;100272.16;5072813;28;45470;-75
2022/12/15 03:36:46;;;;;;;;;67.00;54.00;;;;;2.21;60.12;100265.53;5074325;27;46230;-76
2022/12/15 03:39:11;;;;;;;;;58.00;48.75;;;;;2.22;60.59;100260.22;5073736;27;45388;-76
2022/12/15 03:41:37;;;;;;;;;62.25;51.00;;;;;2.27;60.50;100254.81;5066631;28;45881;-75
2022/12/15 03:44:03;;;;;;;;;70.00;56.75;;;;;2.29;60.74;100248.56;5073650;28;45428;-75
2022/12/15 03:46:28;;;;;;;;;70.00;54.50;;;;;2.30;60.17;100245.03;5071576;28;47341;-75
2022/12/15 03:48:53;;;;;;;;;59.50;47.25;;;;;2.30;60.34;100231.84;5074006;27;45303;-75
2022/12/15 03:51:19;;;;;;;;;69.75;51.50;;;;;2.32;60.18;100240.59;5073611;28;45694;-75
2022/12/15 03:53:46;;;;;;;;;67.25;52.50;;;;;2.30;60.68;100241.53;5073530;27;45879;-75
2022/12/15 03:56:13;;;;;;;;;65.75;53.50;;;;;2.31;60.25;100259.91;5074115;27;45787;-75
2022/12/15 03:58:39;;;;;;;;;55.50;49.00;;;;;2.39;60.29;100266.69;5074028;28;45374;-75
2022/12/15 04:01:32;;;;;;;;;69.00;53.25;;;;;2.36;59.79;100249.22;5074468;27;45428;-74
2022/12/15 04:03:58;;;;;;;;;66.75;51.50;;;;;2.08;60.93;100263.28;5073047;28;45613;-75
2022/12/15 04:06:23;;;;;;;;;63.75;50.50;;;;;2.03;61.24;100275.72;5074088;27;45357;-74
2022/12/15 04:08:49;;;;;;;;;63.75;54.00;;;;;1.80;61.06;100260.66;5074143;28;45325;-74
2022/12/15 04:11:15;;;;;;;;;62.50;51.25;;;;;1.73;62.02;100273.13;5072884;28;45382;-75
2022/12/15 04:13:40;;;;;;;;;66.75;52.25;;;;;1.63;62.10;100272.56;5074021;28;45358;-75
2022/12/15 04:16:06;;;;;;;;;69.00;55.50;;;;;1.74;62.10;100274.00;5073164;28;46160;-75
2022/12/15 04:18:32;;;;;;;;;53.00;44.25;;;;;1.69;62.12;100266.25;5073264;28;45699;-75
2022/12/15 04:20:57;;;;;;;;;67.25;54.00;;;;;1.46;61.74;100217.84;5073654;28;45492;-74
2022/12/15 04:23:23;;;;;;;;;60.00;52.00;;;;;1.81;61.76;100254.50;5073798;27;45405;-75
2022/12/15 05:31:45;;;;;;;;;74.25;53.50;;;;;2.05;61.32;100262.53;5076091;28;45418;-75
2022/12/15 05:34:11;;;;;;;;;61.50;50.50;;;;;2.06;61.05;100258.97;5076248;27;45388;-75
2022/12/15 05:36:36;;;;;;;;;65.00;51.25;;;;;1.72;60.79;100196.94;5074588;28;45396;-73
2022/12/15 05:39:03;;;;;;;;;62.25;50.00;;;;;2.12;59.99;100269.28;5076124;27;45350;-75
2022/12/15 05:41:28;;;;;;;;;63.75;48.25;;;;;1.68;61.21;100241.69;5075818;28;45534;-75
2022/12/15 05:43:54;;;;;;;;;64.25;52.25;;;;;1.78;60.86;100263.34;5076539;27;45423;-74
2022/12/15 05:46:19;;;;;;;;;67.25;52.00;;;;;1.88;60.87;100258.66;5076152;27;45657;-75
2022/12/15 05:48:45;;;;;;;;;64.25;50.50;;;;;1.72;60.91;100257.41;5076092;27;45810;-75
2022/12/15 05:51:11;;;;;;;;;71.00;53.00;;;;;1.64;61.36;100261.09;5075660;27;46036;-74
2022/12/15 05:53:38;;;;;;;;;63.75;50.75;;;;;1.79;61.77;100266.81;5075913;27;45466;-74
2022/12/15 05:56:06;;;;;;;;;63.25;51.50;;;;;1.76;61.29;100280.94;5075677;27;45362;-74
2022/12/15 05:58:32;;;;;;;;;59.00;48.50;;;;;1.68;60.87;100270.63;5076044;27;45556;-74
2022/12/15 06:01:10;;;;;;;;;62.75;49.00;;;;;1.53;61.69;100276.34;5075720;27;46289;-74
2022/12/15 06:03:36;;;;;;;;;62.50;47.00;;;;;1.55;61.75;100268.41;5074069;28;45421;-73
2022/12/15 06:06:03;;;;;;;;;65.00;52.25;;;;;1.60;61.51;100262.09;5075888;27;45533;-76
2022/12/15 06:08:31;;;;;;;;;65.00;52.25;;;;;1.40;62.32;100256.59;5074341;27;45334;-75
2022/12/15 06:10:56;;;;;;;;;67.75;52.75;;;;;0.54;62.38;100112.81;5075375;28;45311;-75
2022/12/15 06:13:23;;;;;;;;;49.00;42.50;;;;;0.76;62.02;100134.06;5075744;27;45353;-75
2022/12/15 06:16:06;;;;;;;;;61.75;50.00;;;;;1.61;62.02;100271.72;5075728;28;45474;-75
2022/12/15 06:18:34;;;;;;;;;65.50;48.00;;;;;1.65;61.46;100265.47;5074211;27;45378;-75
2022/12/15 06:21:03;;;;;;;;;66.50;53.50;;;;;1.79;61.16;100275.56;5075363;28;46293;-75
2022/12/15 06:23:31;;;;;;;;;62.25;51.00;;;;;1.57;61.17;100256.94;5075332;28;45339;-75
2022/12/15 06:25:58;;;;;;;;;64.25;51.00;;;;;1.65;61.47;100275.13;5075407;27;45372;-75
2022/12/15 06:28:23;;;;;;;;;63.25;52.00;;;;;1.60;61.26;100288.41;5075606;28;45398;-75
2022/12/15 06:30:53;;;;;;;;;58.50;44.75;;;;;1.62;61.58;100273.47;5075173;27;46258;-74
2022/12/15 06:33:20;;;;;;;;;60.00;51.00;;;;;1.79;61.06;100282.59;5075340;28;45368;-75
2022/12/15 06:35:46;;;;;;;;;55.50;46.25;;;;;1.81;60.98;100291.31;5075222;27;45438;-75
2022/12/15 06:38:12;;;;;;;;;63.00;49.75;;;;;1.85;61.06;100301.69;5075050;27;45361;-74
2022/12/15 06:40:38;;;;;;;;;63.50;49.25;;;;;1.61;61.32;100265.63;5075080;27;45885;-75
2022/12/15 06:43:04;;;;;;;;;54.50;45.25;;;;;1.86;61.18;100302.53;5075224;27;45403;-75
2022/12/15 06:45:30;;;;;;;;;62.25;51.75;;;;;1.82;60.81;100303.53;5075397;27;45504;-75
2022/12/15 06:47:55;;;;;;;;;67.50;53.25;;;;;1.65;61.51;100302.28;5074980;27;45449;-75
2022/12/15 06:50:20;;;;;;;;;63.00;48.75;;;;;1.46;61.51;100283.56;5075305;27;45483;-75
2022/12/15 06:52:46;;;;;;;;;71.50;55.25;;;;;1.67;61.32;100316.25;5075124;27;45404;-75
2022/12/15 06:55:11;;;;;;;;;67.00;52.50;;;;;1.63;61.69;100319.88;5075266;27;45436;-75
2022/12/15 06:57:37;;;;;;;;;64.00;51.25;;;;;1.52;61.64;100321.94;5075300;27;45388;-75
2022/12/15 07:00:04;;;;;;;;;73.75;58.75;;;;;1.20;62.22;100291.31;5074897;27;45381;-74
2022/12/15 07:02:31;;;;;;;;;64.75;51.00;;;;;0.37;62.42;100166.63;5075158;27;45386;-75
2022/12/15 07:04:57;;;;;;;;;67.00;55.25;;;;;0.97;62.50;100275.28;5070217;28;45489;-75
2022/12/15 07:07:24;;;;;;;;;72.25;58.00;;;;;1.13;62.60;100314.28;5055365;28;45424;-75
2022/12/15 07:09:49;;;;;;;;;62.50;47.75;;;;;0.95;62.92;100310.38;5054251;28;45640;-75
2022/12/15 07:12:14;;;;;;;;;91.25;67.25;;;;;0.74;63.59;100317.91;5066909;28;45441;-75
2022/12/15 07:14:40;;;;;;;;;91.50;70.50;;;;;0.50;63.68;100261.66;5075059;27;45688;-77
2022/12/15 07:17:05;;;;;;;;;84.00;66.50;;;;;0.73;63.76;100317.94;5056502;28;45616;-76
2022/12/15 07:19:31;;;;;;;;;82.00;64.50;;;;;0.86;63.50;100302.75;5074554;27;46053;-76
2022/12/15 07:21:57;;;;;;;;;82.25;65.50;;;;;0.80;63.40;100274.88;5074695;27;45448;-76
2022/12/15 07:24:23;;;;;;;;;77.00;62.00;;;;;1.16;62.95;100309.81;5074644;27;45427;-76
2022/12/15 07:26:48;;;;;;;;;67.25;55.25;;;;;1.37;61.98;100338.16;5074843;27;45327;-76
2022/12/15 07:29:13;;;;;;;;;80.50;59.50;;;;;1.29;62.06;100347.09;5074407;27;45910;-78
2022/12/15 07:31:39;;;;;;;;;80.75;61.50;;;;;1.00;62.81;100319.00;5074440;27;45697;-75
2022/12/15 07:34:04;;;;;;;;;74.50;54.50;;;;;0.99;63.23;100344.41;5074551;27;45440;-75
2022/12/15 07:36:30;;;;;;;;;83.25;66.00;;;;;0.73;63.82;100337.19;5074035;27;45322;-74
2022/12/15 07:39:00;;;;;;;;;71.25;58.25;;;;;0.53;64.29;100316.69;5090048;27;45922;-74
2022/12/15 07:41:26;;;;;;;;;70.00;56.75;;;;;0.77;63.94;100327.47;5074239;27;45511;-74
2022/12/15 07:43:52;;;;;;;;;75.75;59.75;;;;;0.71;63.87;100293.50;5074363;27;45477;-74
2022/12/15 07:46:18;;;;;;;;;74.50;59.75;;;;;0.91;63.79;100333.22;5074633;27;45524;-73
2022/12/15 07:48:44;;;;;;;;;70.75;54.00;;;;;0.71;62.95;100262.00;5072039;28;46303;-74
2022/12/15 07:51:09;;;;;;;;;73.25;57.25;;;;;1.36;62.92;100336.44;5072962;27;45451;-74
2022/12/15 07:53:35;;;;;;;;;73.00;60.00;;;;;1.52;62.28;100340.34;5073254;28;45408;-76
2022/12/15 07:56:03;;;;;;;;;72.75;57.75;;;;;1.66;61.68;100353.97;5072974;28;45564;-76
2022/12/15 07:58:28;;;;;;;;;66.75;53.50;;;;;1.60;61.02;100337.50;5073876;28;45484;-76
2022/12/15 08:01:03;;;;;;;;;76.75;60.75;;;;;1.70;61.32;100356.50;5072559;28;45381;-73
2022/12/15 08:03:28;;;;;;;;;71.00;54.75;;;;;1.61;60.73;100324.31;5074061;27;45390;-76
2022/12/15 08:05:54;;;;;;;;;70.25;54.75;;;;;1.86;61.07;100363.03;5072497;28;45456;-76
2022/12/15 08:08:21;;;;;;;;;72.25;57.75;;;;;1.24;60.26;100254.41;5073954;28;45475;-75
2022/12/15 08:10:46;;;;;;;;;67.50;56.00;;;;;2.00;60.34;100354.75;5074028;28;45546;-76
2022/12/15 08:13:13;;;;;;;;;63.50;53.50;;;;;2.17;60.50;100367.38;5053618;28;45394;-75
2022/12/15 08:15:39;;;;;;;;;69.75;57.50;;;;;2.29;59.86;100376.69;5053902;28;45320;-76
2022/12/15 08:18:06;;;;;;;;;73.00;57.50;;;;;2.35;60.14;100380.00;5053676;28;46398;-76
2022/12/15 08:20:32;;;;;;;;;68.75;54.75;;;;;2.36;60.77;100378.22;5053261;28;45370;-75
2022/12/15 08:22:57;;;;;;;;;78.75;58.50;;;;;2.15;60.13;100335.00;5058925;28;45429;-75
2022/12/15 08:25:23;;;;;;;;;72.00;59.25;;;;;2.48;59.85;100390.13;5077556;27;45439;-76
2022/12/15 08:27:50;;;;;;;;;56.00;42.25;;;;;2.56;60.41;100396.03;5077309;28;45424;-75
2022/12/15 08:30:17;;;;;;;;;83.00;66.00;;;;;2.58;60.06;100404.75;5077273;27;45342;-75
2022/12/15 08:32:43;;;;;;;;;79.50;60.25;;;;;2.28;59.46;100340.75;5077456;27;45452;-76
2022/12/15 08:35:09;;;;;;;;;74.00;57.75;;;;;2.49;58.85;100382.19;5076833;28;45333;-75
2022/12/15 08:37:34;;;;;;;;;72.75;56.75;;;;;2.28;58.49;100406.53;5077318;27;46306;-76
2022/12/15 08:39:59;;;;;;;;;71.25;56.50;;;;;2.21;59.15;100407.66;5077188;27;45354;-75
2022/12/15 08:42:25;;;;;;;;;73.75;58.50;;;;;2.08;59.77;100401.88;5077431;27;45561;-75
2022/12/15 08:44:50;;;;;;;;;68.25;55.25;;;;;2.20;59.94;100393.63;5076237;28;45315;-75
2022/12/15 08:47:15;;;;;;;;;66.50;53.50;;;;;1.67;59.44;100350.44;5077057;27;46055;-76
2022/12/15 08:49:41;;;;;;;;;78.75;61.75;;;;;1.68;60.08;100388.97;5076784;27;45445;-76
2022/12/15 08:52:06;;;;;;;;;75.00;59.50;;;;;1.54;60.70;100391.13;5077357;27;45360;-76
2022/12/15 08:54:32;;;;;;;;;79.00;60.75;;;;;1.65;60.73;100385.59;5077185;27;45415;-76
2022/12/15 08:56:58;;;;;;;;;82.50;63.25;;;;;1.74;60.32;100394.97;5076754;27;45514;-75
2022/12/15 08:59:23;;;;;;;;;67.75;54.50;;;;;1.99;60.13;100401.25;5076736;27;45437;-75
2022/12/15 09:01:49;;;;;;;;;69.25;52.75;;;;;1.79;60.10;100393.91;5077220;27;45384;-75
2022/12/15 09:04:14;;;;;;;;;71.50;57.25;;;;;1.55;60.59;100392.84;5075448;28;45355;-75
2022/12/15 09:06:40;;;;;;;;;73.25;56.50;;;;;1.59;61.22;100399.75;5076692;27;46298;-75
2022/12/15 09:09:09;;;;;;;;;75.25;57.25;;;;;1.49;61.15;100401.75;5076645;28;45441;-75
2022/12/15 09:11:34;;;;;;;;;67.00;53.75;;;;;1.37;61.38;100370.56;5076545;28;45384;-75
2022/12/15 09:14:00;;;;;;;;;75.50;62.25;;;;;1.37;61.71;100388.09;5076870;27;45461;-73
2022/12/15 09:16:26;;;;;;;;;69.00;53.75;;;;;1.51;62.24;100404.34;5076482;27;47248;-75
2022/12/15 09:18:55;;;;;;;;;68.75;54.50;;;;;1.58;62.30;100408.56;5076242;27;45453;-75
2022/12/15 09:21:23;;;;;;;;;74.50;55.25;;;;;1.83;61.68;100406.06;5076947;27;45441;-75
2022/12/15 09:23:50;;;;;;;;;63.25;51.00;;;;;2.08;60.95;100409.78;5076294;27;45524;-75
2022/12/15 09:26:18;;;;;;;;;66.75;55.00;;;;;2.06;60.15;100408.97;5076268;27;46488;-76
2022/12/15 09:28:43;;;;;;;;;65.00;50.75;;;;;1.93;60.48;100390.91;5076574;27;45439;-75
2022/12/15 09:31:20;;;;;;;;;65.25;55.75;;;;;2.06;60.56;100411.59;5076492;27;45483;-76
2022/12/15 09:33:46;;;;;;;;;71.50;56.50;;;;;2.18;60.78;100374.38;5075944;27;45556;-76
2022/12/15 09:36:12;;;;;;;;;69.00;54.50;;;;;2.34;59.69;100365.09;5076574;28;45512;-75
2022/12/15 09:38:39;;;;;;;;;74.50;56.50;;;;;2.90;59.46;100413.38;5076191;28;45445;-75
2022/12/15 09:41:13;;;;;;;;;75.75;59.50;;;;;3.09;58.59;100424.19;5076509;27;45418;-76
2022/12/15 09:43:46;;;;;;;;;61.00;50.50;;;;;2.68;57.26;100378.97;5076731;27;45417;-75
2022/12/15 09:46:30;;;;;;;;;71.00;54.75;;;;;2.55;58.18;100425.94;5076475;27;45337;-76
2022/12/15 09:49:01;;;;;;;;;66.75;55.25;;;;;2.86;58.10;100431.06;5075871;28;45425;-75
2022/12/15 09:51:38;;;;;;;;;61.75;49.00;;;;;2.66;57.88;100418.53;5076318;27;45425;-75
2022/12/15 09:54:03;;;;;;;;;68.00;54.25;;;;;3.00;56.68;100427.13;5076681;27;45666;-75
2022/12/15 09:56:41;;;;;;;;;74.50;57.00;;;;;3.12;57.17;100428.50;5090645;27;47894;-75
2022/12/15 09:59:24;;;;;;;;;65.50;53.25;;;;;3.14;57.20;100426.66;5076387;27;45437;-76
2022/12/15 10:01:58;;;;;;;;;67.25;56.50;;;;;3.46;56.44;100424.72;5076210;27;45466;-74
2022/12/15 10:04:50;;;;;;;;;66.25;52.75;;;;;2.80;55.92;100294.25;5076911;27;45444;-74
2022/12/15 10:07:33;;;;;;;;;68.00;57.25;;;;;3.73;55.39;100422.00;5056400;28;47227;-74
2022/12/15 10:10:16;;;;;;;;;65.75;53.00;;;;;4.06;55.78;100432.25;5055904;28;45556;-75
2022/12/15 10:12:46;;;;;;;;;68.00;53.50;;;;;4.30;55.59;100423.38;5071280;28;45538;-75
2022/12/15 10:15:43;;;;;;;;;69.25;56.75;;;;;4.11;54.08;100422.38;5076081;28;45625;-75
2022/12/15 10:18:22;;;;;;;;;68.25;51.00;;;;;4.12;54.63;100426.75;5075622;28;46427;-75
2022/12/15 10:20:50;;;;;;;;;80.75;59.00;;;;;4.26;55.13;100418.28;5075662;27;45434;-75
2022/12/15 10:23:17;;;;;;;;;67.00;52.50;;;;;4.05;54.14;100423.47;5075781;27;45369;-75
2022/12/15 10:25:47;;;;;;;;;65.50;53.00;;;;;4.15;55.52;100421.34;5075771;27;45523;-74
2022/12/15 10:28:15;;;;;;;;;74.00;55.75;;;;;4.30;54.67;100418.09;5075537;27;46782;-75
2022/12/15 10:30:54;;;;;;;;;67.50;54.00;;;;;3.67;53.56;100357.13;5075209;27;45492;-74
2022/12/15 10:33:23;;;;;;;;;60.00;49.50;;;;;3.70;54.69;100408.00;5075642;27;45460;-74
2022/12/15 10:35:52;;;;;;;;;67.75;53.50;;;;;3.74;54.94;100399.97;5091096;27;45750;-73
2022/12/15 10:38:26;;;;;;;;;60.25;51.75;;;;;3.80;55.25;100391.84;5075436;27;46520;-75
2022/12/15 10:40:58;;;;;;;;;62.25;51.25;;;;;3.57;55.44;100301.22;5075179;27;45362;-74
2022/12/15 10:43:39;;;;;;;;;64.50;50.50;;;;;4.07;54.03;100374.09;5074844;27;45394;-76
2022/12/15 10:46:12;;;;;;;;;65.25;51.75;;;;;4.31;54.28;100387.28;5073775;28;45458;-76
2022/12/15 10:48:38;;;;;;;;;66.75;54.00;;;;;3.96;54.14;100387.69;5074984;28;45424;-76
2022/12/15 10:51:25;;;;;;;;;62.00;51.25;;;;;4.03;54.40;100385.69;5074731;27;45415;-76
2022/12/15 10:53:54;;;;;;;;;69.00;53.25;;;;;3.77;53.74;100333.91;5075409;28;45468;-76
2022/12/15 10:56:27;;;;;;;;;66.25;51.25;;;;;4.08;54.42;100365.25;5075381;27;45439;-76
2022/12/15 10:58:58;;;;;;;;;59.50;49.25;;;;;4.13;53.81;100371.25;5075213;28;46054;-76
2022/12/15 11:01:27;;;;;;;;;65.50;52.00;;;;;4.13;53.68;100375.63;5074811;27;45557;-75
2022/12/15 11:03:53;;;;;;;;;63.00;52.00;;;;;3.88;54.48;100322.00;5075270;27;45615;-75
2022/12/15 11:06:22;;;;;;;;;63.50;53.00;;;;;4.06;53.39;100371.53;5074885;27;45377;-75
2022/12/15 11:08:52;;;;;;;;;52.75;44.75;;;;;3.74;53.67;100323.44;5074960;28;45474;-75
2022/12/15 11:14:13;;;;;;;;;58.75;48.25;;;;;4.23;54.67;100360.31;5074566;28;45435;-75
2022/12/15 11:16:56;;;;;;;;;59.75;50.00;;;;;4.40;52.95;100359.63;5073403;28;45619;-75
2022/12/15 11:19:33;;;;;;;;;62.25;53.25;;;;;4.07;53.56;100350.34;5074720;27;45571;-75
2022/12/15 11:22:15;;;;;;;;;64.25;52.00;;;;;3.70;54.65;100318.28;5074685;27;45332;-75
2022/12/15 11:24:51;;;;;;;;;61.25;49.00;;;;;3.41;54.54;100310.59;5074833;27;45408;-75
2022/12/15 11:27:22;;;;;;;;;65.75;52.00;;;;;3.50;55.22;100334.00;5074459;27;45496;-75
2022/12/15 11:30:00;;;;;;;;;54.00;43.50;;;;;3.60;54.42;100335.38;5072590;27;46227;-73
2022/12/15 11:32:28;;;;;;;;;60.50;49.50;;;;;3.69;54.78;100323.63;5073251;27;45519;-73
2022/12/15 11:34:54;;;;;;;;;57.50;48.00;;;;;3.72;54.83;100314.75;5073527;27;45343;-73
2022/12/15 11:37:35;;;;;;;;;61.50;49.25;;;;;3.70;54.54;100307.75;5073585;27;45373;-73
2022/12/15 11:40:17;;;;;;;;;72.25;55.25;;;;;3.73;55.32;100292.72;5072371;27;46975;-74
2022/12/15 11:43:04;;;;;;;;;62.00;52.75;;;;;3.53;55.28;100283.78;5072899;28;45699;-72
2022/12/15 11:46:14;;;;;;;;;62.25;51.50;;;;;3.56;55.25;100277.53;5072984;27;45717;-74
2022/12/15 11:48:43;;;;;;;;;62.00;50.75;;;;;3.68;53.83;100271.78;5073494;27;45307;-73
2022/12/15 11:51:24;;;;;;;;;64.25;52.00;;;;;3.70;53.61;100281.34;5072506;28;45383;-73
2022/12/15 11:54:05;;;;;;;;;55.50;41.25;;;;;3.30;53.63;100190.56;5072897;27;45450;-73
2022/12/15 11:56:38;;;;;;;;;58.50;49.00;;;;;3.97;52.65;100270.66;5072496;28;45477;-72
2022/12/15 11:59:41;;;;;;;;;58.50;45.50;;;;;4.43;52.24;100267.94;5073083;27;45573;-72
2022/12/15 12:02:09;;;;;;;;;60.00;49.25;;;;;4.42;51.10;100265.38;5072706;28;46488;-73
2022/12/15 12:05:01;;;;;;;;;63.50;51.00;;;;;4.67;51.01;100258.13;5071987;28;45788;-72
2022/12/15 12:07:53;;;;;;;;;60.25;45.75;;;;;4.86;50.31;100257.34;5073003;27;45370;-71
2022/12/15 12:10:50;;;;;;;;;55.75;44.25;;;;;5.00;49.90;100246.16;5071276;28;45792;-71
2022/12/15 12:13:47;;;;;;;;;55.00;39.75;;;;;4.80;48.94;100258.44;5070931;27;46248;-71
2022/12/15 12:16:27;;;;;;;;;58.25;47.25;;;;;4.69;49.06;100256.25;5073521;28;45287;-72
2022/12/15 12:19:03;;;;;;;;;55.75;45.25;;;;;4.98;48.44;100253.28;5074312;27;45492;-72
2022/12/15 12:21:38;;;;;;;;;54.50;46.25;;;;;5.36;48.16;100243.66;5074108;27;45602;-73
2022/12/15 12:24:25;;;;;;;;;53.75;44.00;;;;;5.48;47.62;100202.56;5064355;27;46171;-72
2022/12/15 12:27:20;;;;;;;;;45.50;38.75;;;;;5.65;47.08;100228.19;5075456;27;45437;-72
2022/12/15 12:29:50;;;;;;;;;57.25;47.50;;;;;5.86;46.27;100223.69;5060450;27;45431;-72
2022/12/15 12:32:42;;;;;;;;;52.25;44.25;;;;;6.21;45.93;100217.66;5085814;27;45882;-72
2022/12/15 12:35:38;;;;;;;;;55.75;45.25;;;;;6.30;45.92;100217.16;5088454;27;47156;-72
2022/12/15 12:38:06;;;;;;;;;52.00;42.00;;;;;6.58;45.17;100210.47;5065201;27;45867;-72
2022/12/15 12:40:44;;;;;;;;;44.75;40.75;;;;;6.35;45.37;100217.81;5086557;27;45491;-72
2022/12/15 12:43:30;;;;;;;;;55.25;44.25;;;;;6.27;45.91;100201.44;5078472;27;45372;-72
2022/12/15 12:46:00;;;;;;;;;60.00;47.50;;;;;6.25;44.55;100171.53;5063096;27;47692;-72
2022/12/15 12:48:36;;;;;;;;;55.00;43.50;;;;;6.49;44.82;100210.94;5084677;27;45471;-72
2022/12/15 12:51:36;;;;;;;;;51.25;42.25;;;;;6.68;44.96;100202.91;5085066;27;45430;-72
2022/12/15 12:54:02;;;;;;;;;51.25;43.25;;;;;6.55;45.39;100190.28;5062564;27;45382;-71
2022/12/15 12:56:35;;;;;;;;;54.25;42.75;;;;;6.53;45.45;100201.91;5084525;27;45552;-71
2022/12/15 12:59:08;;;;;;;;;55.50;45.50;;;;;5.72;45.07;100118.50;5087759;27;45374;-71
2022/12/15 13:01:36;;;;;;;;;33.00;27.25;;;;;6.62;46.26;100190.84;5078520;27;45502;-72
2022/12/15 13:04:37;;;;;;;;;49.50;41.25;;;;;6.53;45.41;100196.59;5089396;27;45481;-72
2022/12/15 13:07:24;;;;;;;;;51.00;43.00;;;;;6.96;44.85;100194.38;5068572;27;47291;-72
2022/12/15 13:10:11;;;;;;;;;48.75;42.50;;;;;6.88;44.76;100199.22;5064886;27;45597;-72
2022/12/15 13:12:47;;;;;;;;;55.25;46.25;;;;;6.88;44.92;100205.41;5085840;27;45544;-71
2022/12/15 13:15:23;;;;;;;;;49.75;42.00;;;;;6.11;45.52;100197.84;5087393;27;45408;-72
2022/12/15 13:17:53;;;;;;;;;48.50;39.75;;;;;6.21;45.87;100167.31;5063843;27;47073;-72
2022/12/15 13:20:18;;;;;;;;;56.25;45.00;;;;;6.25;45.37;100190.06;5087474;27;45401;-72
2022/12/15 13:22:44;;;;;;;;;52.75;44.50;;;;;6.34;45.63;100201.97;5074168;27;45745;-72
2022/12/15 13:25:45;;;;;;;;;52.50;41.00;;;;;6.55;45.50;100211.50;5076655;27;45423;-72
2022/12/15 13:28:33;;;;;;;;;52.75;42.25;;;;;6.70;44.77;100199.25;5052436;28;46299;-72
2022/12/15 13:31:20;;;;;;;;;56.00;44.25;;;;;6.52;44.38;100202.88;5059138;28;45674;-72
2022/12/15 13:33:48;;;;;;;;;35.00;33.00;;;;;6.54;44.53;100209.78;5049677;28;45439;-72
2022/12/15 13:36:42;;;;;;;;;46.00;40.25;;;;;6.44;45.09;100199.72;5060698;28;45506;-72
2022/12/15 13:39:13;;;;;;;;;46.50;41.50;;;;;6.10;45.35;100194.34;5054254;28;47666;-72
2022/12/15 13:42:03;;;;;;;;;44.75;41.00;;;;;6.19;45.01;100193.03;5068774;28;45723;-72
2022/12/15 13:44:35;;;;;;;;;57.00;45.25;;;;;6.22;45.14;100191.09;5062727;28;45638;-72
2022/12/15 13:47:32;;;;;;;;;46.50;40.25;;;;;6.38;44.77;100183.22;5042323;28;45485;-72
2022/12/15 13:50:05;;;;;;;;;44.25;39.00;;;;;6.16;43.04;100161.41;5042507;28;45690;-72
2022/12/15 13:52:44;;;;;;;;;52.75;38.75;;;;;6.14;44.16;100179.13;5066682;28;45500;-72
2022/12/15 13:55:21;;;;;;;;;49.50;42.00;;;;;6.02;43.89;100155.00;5057191;28;45461;-72
2022/12/15 13:58:08;;;;;;;;;37.00;35.75;;;;;6.11;42.86;100171.34;5039955;28;45454;-72